메인 페이지
METAR-TAF:

METAR-TAF

공항 :

상파울루 콩고냐스 공항

상파울루, 상파울루, 브라질

위도: 23-37S, 경도: 046-39W, 고도: 803m

현재 날씨관측

예보는 18분 전, 04:00시(UTC)에 발표되었습니다.
여러 방향의 바람 1kt
온도 16°C
습도 88%
기압 1024 hPa
시정: 7000m

METAR: SBSP 180400Z AUTO VRB01KT 7000 NCD 16/14 Q1024

시각: 01:18 (04:18 UTC)

예보

예보는 6 시간 18분 전, 22:00시(UTC)에 발표되었습니다.
예보 대상 시간: 18일 00시부터 18일 12시까지 (UTC)
여러 방향의 바람 3kt
시정 10km 이상
1500m 미만 상공 구름 및 적란운 없음
확률 30%
18일 00시부터 18일 06시까지 (UTC)
시정: 6000m
고도 1000ft 상공 구름 많음
확률 30%
18일 06시부터 18일 12시까지 (UTC)
시정: 8000m
고도 800ft 상공 구름 보통

TAF: SBSP 172200Z 1800/1812 VRB03KT CAVOK TN14/1808Z TX16/1811Z PROB30 1800/1806 6000 BKN010 PROB30 1806/1812 8000 SCT008 RMK PGL

4,000개 이상의 공항 관측 자료 및 예보 (METAR 및 TAF 보고).

지도상에서 검색 가능한 기상관측소가 노란 점과 빨간 점으로 표시되어 있습니다.

기상관측소 명을 보려면 표시 위로 마우스를 이동하세요.

날씨 관측과 예보를 보려면 클릭하세요.

지도 변경 : 확대하려면 엑스 표시가 있는 녹색 버튼, 축소하려면 빼기 표시가 있는 녹색 버튼, 다음 페이지의 지도를 보려면 녹색 화살표를 클릭하세요.


METAR-TAF: